createdAt,value
2017-07-26T00:00:18.754Z,9.83
2017-07-26T00:02:46.233Z,10.47
2017-07-26T00:05:13.742Z,9.47
2017-07-26T00:07:41.197Z,9.27
2017-07-26T00:10:08.659Z,9.80
2017-07-26T00:12:36.145Z,10.60
2017-07-26T00:15:03.612Z,11.10
2017-07-26T00:17:31.112Z,10.33
2017-07-26T00:19:58.675Z,8.00
2017-07-26T00:22:26.134Z,9.00
2017-07-26T00:24:53.586Z,9.17
2017-07-26T00:27:21.113Z,11.00
2017-07-26T00:29:48.578Z,10.17
2017-07-26T00:32:16.035Z,8.67
2017-07-26T00:34:43.522Z,9.30
2017-07-26T00:37:10.986Z,8.90
2017-07-26T00:39:39.214Z,9.00
2017-07-26T00:42:06.714Z,10.50
2017-07-26T00:44:34.162Z,9.27
2017-07-26T00:47:01.622Z,9.10
2017-07-26T00:49:29.182Z,9.03
2017-07-26T00:51:56.643Z,9.17
2017-07-26T00:54:24.112Z,9.37
2017-07-26T00:56:51.598Z,8.40
2017-07-26T00:59:19.062Z,8.50
2017-07-26T01:01:46.565Z,7.23
2017-07-26T01:04:14.018Z,8.07
2017-07-26T01:06:41.479Z,7.80
2017-07-26T01:09:08.954Z,8.00
2017-07-26T01:11:36.492Z,8.47
2017-07-26T01:14:03.986Z,9.47
2017-07-26T01:16:31.465Z,6.33
2017-07-26T01:18:58.918Z,9.00
2017-07-26T01:21:26.394Z,8.97
2017-07-26T01:23:53.914Z,8.43
2017-07-26T01:26:21.386Z,8.17
2017-07-26T01:28:49.645Z,9.20
2017-07-26T01:31:17.098Z,7.80
2017-07-26T01:33:44.553Z,7.60
2017-07-26T01:36:12.038Z,8.83
2017-07-26T01:38:40.258Z,7.50
2017-07-26T01:41:07.706Z,8.17
2017-07-26T01:43:35.177Z,5.80
2017-07-26T01:46:02.633Z,7.60
2017-07-26T01:48:30.196Z,7.10
2017-07-26T01:50:57.650Z,7.50
2017-07-26T01:53:25.134Z,7.33
2017-07-26T01:55:52.589Z,8.83
2017-07-26T01:58:20.180Z,9.07
2017-07-26T02:00:48.409Z,9.17
2017-07-26T02:03:15.874Z,9.93
2017-07-26T02:05:43.351Z,9.07
2017-07-26T02:08:10.914Z,8.57
2017-07-26T02:10:38.375Z,9.23
2017-07-26T02:13:05.871Z,8.10
2017-07-26T02:15:33.321Z,9.03
2017-07-26T02:18:00.796Z,9.00
2017-07-26T02:20:28.273Z,11.30
2017-07-26T02:22:55.722Z,9.43
2017-07-26T02:25:23.215Z,9.07
2017-07-26T02:27:50.750Z,10.23
2017-07-26T02:30:18.217Z,9.23
2017-07-26T02:32:45.706Z,9.10
2017-07-26T02:35:13.157Z,9.70
2017-07-26T02:37:40.617Z,9.63
2017-07-26T02:40:08.085Z,8.67
2017-07-26T02:42:35.628Z,9.53
2017-07-26T02:45:03.081Z,9.20
2017-07-26T02:47:30.567Z,8.80
2017-07-26T02:49:58.789Z,9.60
2017-07-26T02:52:26.251Z,9.70
2017-07-26T02:54:53.741Z,8.70
2017-07-26T02:57:21.200Z,10.03
2017-07-26T02:59:48.665Z,11.43
2017-07-26T03:02:16.933Z,10.80
2017-07-26T03:04:44.385Z,9.60
2017-07-26T03:07:11.842Z,10.10
2017-07-26T03:09:39.382Z,11.17
2017-07-26T03:12:06.852Z,12.30
2017-07-26T03:14:34.444Z,9.87
2017-07-26T03:17:01.951Z,10.93
2017-07-26T03:19:29.434Z,11.00
2017-07-26T03:21:56.916Z,10.70
2017-07-26T03:24:24.382Z,11.60
2017-07-26T03:26:51.869Z,12.67
2017-07-26T03:29:19.334Z,11.50
2017-07-26T03:31:46.802Z,11.80
2017-07-26T03:34:14.282Z,12.23
2017-07-26T03:36:41.742Z,11.63
2017-07-26T03:39:09.301Z,12.70
2017-07-26T03:41:36.760Z,14.13
2017-07-26T03:44:04.226Z,12.63
2017-07-26T03:46:31.706Z,13.00
2017-07-26T03:48:59.167Z,12.50
2017-07-26T03:51:26.654Z,12.20
2017-07-26T03:53:54.111Z,12.63
2017-07-26T03:56:21.570Z,14.80
2017-07-26T03:58:49.065Z,13.97
2017-07-26T04:01:16.523Z,15.13
2017-07-26T04:03:43.991Z,15.10
2017-07-26T04:06:11.485Z,14.23
2017-07-26T04:08:38.966Z,16.50
2017-07-26T04:11:06.430Z,15.33
2017-07-26T04:13:33.922Z,15.87
2017-07-26T04:16:01.386Z,13.10
2017-07-26T04:18:28.878Z,15.50
2017-07-26T04:20:56.343Z,16.07
2017-07-26T04:23:23.819Z,17.20
2017-07-26T04:25:51.297Z,16.47
2017-07-26T04:28:18.753Z,15.70
2017-07-26T04:30:46.219Z,15.03
2017-07-26T04:33:13.709Z,18.20
2017-07-26T04:35:41.942Z,16.67
2017-07-26T04:38:09.403Z,15.63
2017-07-26T04:40:36.897Z,15.57
2017-07-26T04:43:05.116Z,16.77
2017-07-26T04:45:32.621Z,17.10
2017-07-26T04:48:00.083Z,15.40
2017-07-26T04:50:27.539Z,18.00
2017-07-26T04:52:55.059Z,17.23
2017-07-26T04:55:22.550Z,15.90
2017-07-26T04:57:50.144Z,17.90
2017-07-26T05:00:17.642Z,16.60
2017-07-26T05:02:45.143Z,15.80
2017-07-26T05:05:12.629Z,14.50
2017-07-26T05:07:40.123Z,15.37
2017-07-26T05:10:07.709Z,15.43
2017-07-26T05:12:35.191Z,15.67
2017-07-26T05:15:02.664Z,14.90
2017-07-26T05:17:30.146Z,15.70
2017-07-26T05:19:57.603Z,14.17
2017-07-26T05:22:25.052Z,15.17
2017-07-26T05:24:52.573Z,15.73
2017-07-26T05:27:21.027Z,17.03
2017-07-26T05:29:48.663Z,16.83
2017-07-26T05:32:16.376Z,16.77
2017-07-26T05:34:44.637Z,16.40
2017-07-26T05:37:12.109Z,16.37
2017-07-26T05:39:39.595Z,15.00
2017-07-26T05:42:07.041Z,15.20
2017-07-26T05:44:34.524Z,14.30
2017-07-26T05:47:01.994Z,13.87
2017-07-26T05:49:29.498Z,12.77
2017-07-26T05:51:56.966Z,14.97
2017-07-26T05:54:24.449Z,12.27
2017-07-26T05:56:51.921Z,13.70
2017-07-26T05:59:19.379Z,14.10
2017-07-26T06:01:46.853Z,13.20
2017-07-26T06:04:14.347Z,13.77
2017-07-26T06:06:41.807Z,13.27
2017-07-26T06:09:09.260Z,12.83
2017-07-26T06:11:36.732Z,12.10
2017-07-26T06:14:04.201Z,12.73
2017-07-26T06:16:32.454Z,11.07
2017-07-26T06:18:59.913Z,11.57
2017-07-26T06:21:27.393Z,13.30
2017-07-26T06:23:55.645Z,11.13
2017-07-26T06:26:23.141Z,8.20
2017-07-26T06:28:50.611Z,10.40
2017-07-26T06:31:18.061Z,10.90
2017-07-26T06:33:45.553Z,10.60
2017-07-26T06:36:13.039Z,5.93
2017-07-26T06:38:40.494Z,10.60
2017-07-26T06:41:07.994Z,10.93
2017-07-26T06:43:35.458Z,9.37
2017-07-26T06:46:02.905Z,9.17
2017-07-26T06:48:30.385Z,9.23
2017-07-26T06:50:57.841Z,7.53
2017-07-26T06:53:25.347Z,7.67
2017-07-26T06:55:52.815Z,8.83
2017-07-26T06:58:20.319Z,10.00
2017-07-26T07:00:47.815Z,6.77
2017-07-26T07:03:15.262Z,6.33
2017-07-26T07:05:42.713Z,5.70
2017-07-26T07:08:10.187Z,5.30
2017-07-26T07:10:37.634Z,6.70
2017-07-26T07:13:05.118Z,5.47
2017-07-26T07:15:32.565Z,7.70
2017-07-26T07:18:00.030Z,8.70
2017-07-26T07:20:27.500Z,8.20
2017-07-26T07:22:54.981Z,8.50
2017-07-26T07:25:22.433Z,9.17
2017-07-26T07:27:49.947Z,9.50
2017-07-26T07:30:17.409Z,9.73
2017-07-26T07:32:44.906Z,6.07
2017-07-26T07:35:12.362Z,7.20
2017-07-26T07:37:40.574Z,8.40
2017-07-26T07:40:08.050Z,8.37
2017-07-26T07:42:35.507Z,7.60
2017-07-26T07:45:02.982Z,6.57
2017-07-26T07:47:30.458Z,5.67
2017-07-26T07:49:58.802Z,7.57
2017-07-26T07:52:26.262Z,8.90
2017-07-26T07:54:53.713Z,8.70
2017-07-26T07:57:21.185Z,8.97
2017-07-26T07:59:48.629Z,8.73
2017-07-26T08:02:16.121Z,8.53
2017-07-26T08:04:43.574Z,8.77
2017-07-26T08:07:11.030Z,8.77
2017-07-26T08:09:38.525Z,7.23
2017-07-26T08:12:05.986Z,7.73
2017-07-26T08:14:33.439Z,6.30
2017-07-26T08:17:00.910Z,7.67
2017-07-26T08:19:28.366Z,6.57
2017-07-26T08:21:55.842Z,7.20
2017-07-26T08:24:23.297Z,6.00
2017-07-26T08:26:50.786Z,6.30
2017-07-26T08:29:18.238Z,5.50
2017-07-26T08:31:45.690Z,6.00
2017-07-26T08:34:13.258Z,5.63
2017-07-26T08:36:40.749Z,6.33
2017-07-26T08:39:08.210Z,5.87
2017-07-26T08:41:35.656Z,5.03
2017-07-26T08:44:03.143Z,5.60
2017-07-26T08:46:30.601Z,6.37
2017-07-26T08:48:58.052Z,5.70
2017-07-26T08:51:25.542Z,6.40
2017-07-26T08:53:52.986Z,6.30
2017-07-26T08:56:20.462Z,7.07
2017-07-26T08:58:47.918Z,6.57
2017-07-26T09:01:15.399Z,7.00
2017-07-26T09:03:42.882Z,6.20
2017-07-26T09:06:11.108Z,6.23
2017-07-26T09:08:38.558Z,5.73
2017-07-26T09:11:06.035Z,6.17
2017-07-26T09:13:33.506Z,5.30
2017-07-26T09:16:00.966Z,5.57
2017-07-26T09:18:28.521Z,4.73
2017-07-26T09:20:55.970Z,4.80
2017-07-26T09:23:23.426Z,4.13
2017-07-26T09:25:50.905Z,6.17
2017-07-26T09:28:18.358Z,5.80
2017-07-26T09:30:45.812Z,5.40
2017-07-26T09:33:13.289Z,6.03
2017-07-26T09:35:41.545Z,4.67
2017-07-26T09:38:09.003Z,6.40
2017-07-26T09:40:36.457Z,5.17
2017-07-26T09:43:03.932Z,6.27
2017-07-26T09:45:31.481Z,4.90
2017-07-26T09:47:58.942Z,4.10
2017-07-26T09:50:26.430Z,4.20
2017-07-26T09:52:53.886Z,3.70
2017-07-26T09:55:21.337Z,3.47
2017-07-26T09:57:48.814Z,4.23
2017-07-26T10:00:16.269Z,4.70
2017-07-26T10:02:43.764Z,5.00
2017-07-26T10:05:11.218Z,5.20
2017-07-26T10:07:38.675Z,6.17
2017-07-26T10:10:06.270Z,5.20
2017-07-26T10:12:33.720Z,5.37
2017-07-26T10:15:01.185Z,6.23
2017-07-26T10:17:28.682Z,6.30
2017-07-26T10:19:56.154Z,5.17
2017-07-26T10:22:23.608Z,5.80
2017-07-26T10:24:51.101Z,5.37
2017-07-26T10:27:18.598Z,5.77
2017-07-26T10:29:46.811Z,5.90
2017-07-26T10:32:14.306Z,4.93
2017-07-26T10:34:41.763Z,3.97
2017-07-26T10:37:09.250Z,3.87
2017-07-26T10:39:37.601Z,3.93
2017-07-26T10:42:05.071Z,3.40
2017-07-26T10:44:32.530Z,3.63
2017-07-26T10:47:00.026Z,3.90
2017-07-26T10:49:27.482Z,4.63
2017-07-26T10:51:54.943Z,4.30
2017-07-26T10:54:22.418Z,4.73
2017-07-26T10:56:49.865Z,3.87
2017-07-26T10:59:17.370Z,5.20
2017-07-26T11:01:44.830Z,4.80
2017-07-26T11:04:12.287Z,4.77
2017-07-26T11:06:39.761Z,5.10
2017-07-26T11:09:08.122Z,4.77
2017-07-26T11:11:35.577Z,4.90
2017-07-26T11:14:03.034Z,5.20
2017-07-26T11:16:30.510Z,5.60
2017-07-26T11:18:57.964Z,5.30
2017-07-26T11:21:25.449Z,4.73
2017-07-26T11:23:52.900Z,6.43
2017-07-26T11:26:20.352Z,5.10
2017-07-26T11:28:47.851Z,6.10
2017-07-26T11:31:15.298Z,5.67
2017-07-26T11:33:42.762Z,5.27
2017-07-26T11:36:10.243Z,4.00
2017-07-26T11:38:37.810Z,5.53
2017-07-26T11:41:05.283Z,4.37
2017-07-26T11:43:32.732Z,4.57
2017-07-26T11:46:00.205Z,5.03
2017-07-26T11:48:27.678Z,5.63
2017-07-26T11:50:55.158Z,5.67
2017-07-26T11:53:22.614Z,5.97
2017-07-26T11:55:50.089Z,6.47
2017-07-26T11:58:17.546Z,7.57
2017-07-26T12:00:45.042Z,5.47
2017-07-26T12:03:12.497Z,4.87
2017-07-26T12:05:39.965Z,4.97
2017-07-26T12:08:07.417Z,4.33
2017-07-26T12:10:34.901Z,4.80
2017-07-26T12:13:03.950Z,5.17
2017-07-26T12:15:31.510Z,5.80
2017-07-26T12:17:59.005Z,6.03
2017-07-26T12:20:30.418Z,5.30
2017-07-26T12:22:58.142Z,3.80
2017-07-26T12:25:25.630Z,6.60
2017-07-26T12:27:53.125Z,6.20
2017-07-26T12:30:20.596Z,6.30
2017-07-26T12:32:48.096Z,6.40
2017-07-26T12:35:15.620Z,6.60
2017-07-26T12:37:43.081Z,6.40
2017-07-26T12:40:10.525Z,7.77
2017-07-26T12:42:38.014Z,7.20
2017-07-26T12:45:05.489Z,4.97
2017-07-26T12:47:32.963Z,6.50
2017-07-26T12:50:00.552Z,6.40
2017-07-26T12:52:28.006Z,5.83
2017-07-26T12:54:55.635Z,6.40
2017-07-26T12:57:23.113Z,5.47
2017-07-26T12:59:51.053Z,6.07
2017-07-26T13:02:18.912Z,6.00
2017-07-26T13:04:46.491Z,6.03
2017-07-26T13:07:14.313Z,5.77
2017-07-26T13:09:42.029Z,7.03
2017-07-26T13:12:09.530Z,6.10
2017-07-26T13:14:37.257Z,6.63
2017-07-26T13:17:04.831Z,6.87
2017-07-26T13:19:32.742Z,5.70
2017-07-26T13:22:00.525Z,5.80
2017-07-26T13:24:28.014Z,4.73
2017-07-26T13:26:55.722Z,5.47
2017-07-26T13:29:23.337Z,4.50
2017-07-26T13:31:50.941Z,4.63
2017-07-26T13:34:18.688Z,3.67
2017-07-26T13:36:46.473Z,4.40
2017-07-26T13:39:14.132Z,4.87
2017-07-26T13:41:41.698Z,4.60
2017-07-26T13:44:09.310Z,3.87
2017-07-26T13:46:36.905Z,4.97
2017-07-26T13:49:04.477Z,3.80
2017-07-26T13:51:32.173Z,3.87
2017-07-26T13:53:59.769Z,3.90
2017-07-26T13:56:27.289Z,4.90
2017-07-26T13:58:54.745Z,5.30
2017-07-26T14:01:22.201Z,4.90
2017-07-26T14:03:49.690Z,4.47
2017-07-26T14:06:17.144Z,5.17
2017-07-26T14:08:44.631Z,4.20
2017-07-26T14:11:12.129Z,3.60
2017-07-26T14:13:39.569Z,4.07
2017-07-26T14:16:07.028Z,2.83
2017-07-26T14:18:34.493Z,3.97
2017-07-26T14:21:01.986Z,3.97
2017-07-26T14:23:29.443Z,3.57
2017-07-26T14:25:56.897Z,3.33
2017-07-26T14:28:24.393Z,4.50
2017-07-26T14:30:51.842Z,4.70
2017-07-26T14:33:19.298Z,4.30
2017-07-26T14:35:46.781Z,3.30
2017-07-26T14:38:14.231Z,3.17
2017-07-26T14:40:41.692Z,3.00
2017-07-26T14:43:09.154Z,3.83
2017-07-26T14:45:36.625Z,2.50
2017-07-26T14:48:04.074Z,2.60
2017-07-26T14:50:31.554Z,2.10
2017-07-26T14:52:59.016Z,2.47
2017-07-26T14:55:26.469Z,1.97
2017-07-26T14:57:53.943Z,2.10
2017-07-26T15:00:21.422Z,2.30
2017-07-26T15:02:48.872Z,2.10
2017-07-26T15:05:16.327Z,2.07
2017-07-26T15:07:43.813Z,2.57
2017-07-26T15:10:11.265Z,2.00
2017-07-26T15:12:38.769Z,1.83
2017-07-26T15:15:06.258Z,1.70
2017-07-26T15:17:33.728Z,1.40
2017-07-26T15:20:01.269Z,2.10
2017-07-26T15:22:28.753Z,2.00
2017-07-26T15:24:56.244Z,1.73
2017-07-26T15:27:23.697Z,1.63
2017-07-26T15:29:51.158Z,2.00
2017-07-26T15:32:18.642Z,1.73
2017-07-26T15:34:46.106Z,1.77
2017-07-26T15:37:13.562Z,1.77
2017-07-26T15:39:41.062Z,2.40
2017-07-26T15:42:08.534Z,2.47
2017-07-26T15:44:36.002Z,2.30
2017-07-26T15:47:03.472Z,2.20
2017-07-26T15:49:30.961Z,3.00
2017-07-26T15:51:58.442Z,2.97
2017-07-26T15:54:25.962Z,2.30
2017-07-26T15:56:53.458Z,2.77
2017-07-26T15:59:20.922Z,2.57
2017-07-26T16:01:48.381Z,2.50
2017-07-26T16:04:15.861Z,2.90
2017-07-26T16:06:43.360Z,2.87
2017-07-26T16:09:10.826Z,2.70
2017-07-26T16:11:38.293Z,2.67
2017-07-26T16:14:05.774Z,2.40
2017-07-26T16:16:33.230Z,3.17
2017-07-26T16:19:00.718Z,2.73
2017-07-26T16:21:28.202Z,3.57
2017-07-26T16:23:55.680Z,2.93
2017-07-26T16:26:23.138Z,3.20
2017-07-26T16:28:50.627Z,3.20
2017-07-26T16:31:18.070Z,3.77
2017-07-26T16:33:45.521Z,3.80
2017-07-26T16:36:12.991Z,3.70
2017-07-26T16:38:40.451Z,4.50
2017-07-26T16:41:07.969Z,5.00
2017-07-26T16:43:36.189Z,4.20
2017-07-26T16:46:03.642Z,4.60
2017-07-26T16:48:31.505Z,4.77
2017-07-26T16:50:59.033Z,4.70
2017-07-26T16:53:26.493Z,5.40
2017-07-26T16:55:53.974Z,5.27
2017-07-26T16:58:21.445Z,6.00
2017-07-26T17:00:48.982Z,5.53
2017-07-26T17:03:16.438Z,6.67
2017-07-26T17:05:43.890Z,6.10
2017-07-26T17:08:11.381Z,5.53
2017-07-26T17:10:38.829Z,7.20
2017-07-26T17:13:06.282Z,6.50
2017-07-26T17:15:33.783Z,7.00
2017-07-26T17:18:01.237Z,6.60
2017-07-26T17:20:28.700Z,7.10
2017-07-26T17:22:56.181Z,7.23
2017-07-26T17:25:23.670Z,7.63
2017-07-26T17:27:51.130Z,8.13
2017-07-26T17:30:18.592Z,8.47
2017-07-26T17:32:46.040Z,7.90
2017-07-26T17:35:13.517Z,8.40
2017-07-26T17:37:40.975Z,8.20
2017-07-26T17:40:08.525Z,9.63
2017-07-26T17:42:36.000Z,8.60
2017-07-26T17:45:03.446Z,8.10
2017-07-26T17:47:30.897Z,9.60
2017-07-26T17:49:58.384Z,7.30
2017-07-26T17:52:26.199Z,8.80
2017-07-26T17:54:53.850Z,6.80
2017-07-26T17:57:22.086Z,7.57
2017-07-26T17:59:50.536Z,6.77
2017-07-26T18:02:18.032Z,5.87
2017-07-26T18:04:45.673Z,6.13
2017-07-26T18:07:14.484Z,7.57
2017-07-26T18:09:42.097Z,6.30
2017-07-26T18:12:09.729Z,6.70
2017-07-26T18:14:37.316Z,5.53
2017-07-26T18:17:04.952Z,6.17
2017-07-26T18:19:32.518Z,5.60
2017-07-26T18:22:00.007Z,5.93
2017-07-26T18:24:27.493Z,4.67
2017-07-26T18:26:55.089Z,5.47
2017-07-26T18:29:22.574Z,5.40
2017-07-26T18:31:50.059Z,5.60
2017-07-26T18:34:17.525Z,6.27
2017-07-26T18:36:45.039Z,5.10
2017-07-26T18:39:12.550Z,5.70
2017-07-26T18:41:40.163Z,5.70
2017-07-26T18:44:07.678Z,6.67
2017-07-26T18:46:35.125Z,5.20
2017-07-26T18:49:02.566Z,4.83
2017-07-26T18:51:30.042Z,5.27
2017-07-26T18:53:57.537Z,5.00
2017-07-26T18:56:24.989Z,5.20
2017-07-26T18:58:52.449Z,4.73
2017-07-26T19:01:19.932Z,5.57
2017-07-26T19:03:47.371Z,6.10
2017-07-26T19:06:14.852Z,5.43
2017-07-26T19:08:42.429Z,5.63
2017-07-26T19:11:09.916Z,4.80
2017-07-26T19:13:37.374Z,5.17
2017-07-26T19:16:04.834Z,5.60
2017-07-26T19:18:32.309Z,5.93
2017-07-26T19:20:59.814Z,4.77
2017-07-26T19:23:27.326Z,5.70
2017-07-26T19:25:54.858Z,5.20
2017-07-26T19:28:22.665Z,5.80
2017-07-26T19:30:50.335Z,5.60
2017-07-26T19:33:17.953Z,5.17
2017-07-26T19:35:45.662Z,5.57
2017-07-26T19:38:13.254Z,5.30
2017-07-26T19:40:41.016Z,5.27
2017-07-26T19:43:08.744Z,5.47
2017-07-26T19:45:36.409Z,5.73
2017-07-26T19:48:04.103Z,5.07
2017-07-26T19:50:31.736Z,5.57
2017-07-26T19:52:59.389Z,5.67
2017-07-26T19:55:27.067Z,5.67
2017-07-26T19:57:54.653Z,4.80
2017-07-26T20:00:22.659Z,6.30
2017-07-26T20:02:51.613Z,5.50
2017-07-26T20:05:19.337Z,5.13
2017-07-26T20:07:47.538Z,5.83
2017-07-26T20:10:15.173Z,6.00
2017-07-26T20:12:43.080Z,5.33
2017-07-26T20:15:10.667Z,5.20
2017-07-26T20:17:38.320Z,6.30
2017-07-26T20:20:06.086Z,5.43
2017-07-26T20:22:33.606Z,6.10
2017-07-26T20:25:01.310Z,5.90
2017-07-26T20:27:28.878Z,5.40
2017-07-26T20:29:56.435Z,6.37
2017-07-26T20:32:24.498Z,5.83
2017-07-26T20:34:52.035Z,5.60
2017-07-26T20:37:20.233Z,6.20
2017-07-26T20:39:47.745Z,6.77
2017-07-26T20:42:15.210Z,5.10
2017-07-26T20:44:43.434Z,6.17
2017-07-26T20:47:10.899Z,6.30
2017-07-26T20:49:38.407Z,6.50
2017-07-26T20:52:05.897Z,6.37
2017-07-26T20:54:33.342Z,6.77
2017-07-26T20:57:00.799Z,6.87
2017-07-26T20:59:28.322Z,6.60
2017-07-26T21:01:56.215Z,6.20
2017-07-26T21:04:23.705Z,6.10
2017-07-26T21:06:51.186Z,6.90
2017-07-26T21:09:18.642Z,5.60
2017-07-26T21:11:46.120Z,5.20
2017-07-26T21:14:13.662Z,5.90
2017-07-26T21:16:41.137Z,5.57
2017-07-26T21:19:08.603Z,5.73
2017-07-26T21:21:36.094Z,6.73
2017-07-26T21:24:03.573Z,7.80
2017-07-26T21:26:31.038Z,6.67
2017-07-26T21:28:58.602Z,10.13
2017-07-26T21:31:26.082Z,8.70
2017-07-26T21:33:53.554Z,10.13
2017-07-26T21:36:21.009Z,6.77
2017-07-26T21:38:48.509Z,11.07
2017-07-26T21:41:16.031Z,10.50
2017-07-26T21:43:43.816Z,14.20
2017-07-26T21:46:11.772Z,14.03
2017-07-26T21:48:39.277Z,13.80
2017-07-26T21:51:06.733Z,14.67
2017-07-26T21:53:34.210Z,15.10
2017-07-26T21:56:01.722Z,15.80
2017-07-26T21:58:29.224Z,17.20
2017-07-26T22:00:56.677Z,14.63
2017-07-26T22:03:24.163Z,13.10
2017-07-26T22:05:51.654Z,13.47
2017-07-26T22:08:19.886Z,12.53
2017-07-26T22:10:47.374Z,14.57
2017-07-26T22:13:14.862Z,13.60
2017-07-26T22:15:42.354Z,13.17
2017-07-26T22:18:09.818Z,11.50
2017-07-26T22:20:38.048Z,12.30
2017-07-26T22:23:06.293Z,12.07
2017-07-26T22:25:33.757Z,12.30
2017-07-26T22:28:01.216Z,13.50
2017-07-26T22:30:28.693Z,12.77
2017-07-26T22:32:56.915Z,11.30
2017-07-26T22:35:24.411Z,12.27
2017-07-26T22:37:51.906Z,12.50
2017-07-26T22:40:19.376Z,11.27
2017-07-26T22:42:46.830Z,11.50
2017-07-26T22:45:14.329Z,13.30
2017-07-26T22:47:41.778Z,13.63
2017-07-26T22:50:09.258Z,12.43
2017-07-26T22:52:36.745Z,13.67
2017-07-26T22:55:04.239Z,12.70
2017-07-26T22:57:31.743Z,12.50
2017-07-26T22:59:59.211Z,12.17
2017-07-26T23:02:27.430Z,10.90
2017-07-26T23:04:54.931Z,11.20
2017-07-26T23:07:22.401Z,13.70
2017-07-26T23:09:50.675Z,12.17
2017-07-26T23:12:18.889Z,12.77
2017-07-26T23:14:46.350Z,12.20
2017-07-26T23:17:13.838Z,9.20
2017-07-26T23:19:41.374Z,11.30
2017-07-26T23:22:08.829Z,11.93
2017-07-26T23:24:36.317Z,10.10
2017-07-26T23:27:03.794Z,11.30
2017-07-26T23:29:31.270Z,12.00
2017-07-26T23:31:58.749Z,10.67
2017-07-26T23:34:26.215Z,10.17
2017-07-26T23:36:53.700Z,10.53
2017-07-26T23:39:21.162Z,10.80
2017-07-26T23:41:48.658Z,10.07
2017-07-26T23:44:16.877Z,9.83
2017-07-26T23:46:44.346Z,10.40
2017-07-26T23:49:11.917Z,9.73
2017-07-26T23:51:39.400Z,9.90
2017-07-26T23:54:06.859Z,9.50
2017-07-26T23:56:34.310Z,9.83
2017-07-26T23:59:01.790Z,9.87
